Terminal Aerodrome Forecast
Issued by NWS

Home | Current Version | Previous Version | Text Only | Print | Product List | Glossary On
Versions: 1 2 3 4 5 6 7 8 9 10 11 12 13 14 15 16 17 18 19 20 21 22 23 24 25 26 27 28 29 30 31 32 33 34 35 36 37 38
000
FTUS41 KGYX 202035 AAA
TAFAUG
TAF AMD
KAUG 202035Z 2021/2118 35013G22KT 2SM -SN OVC008
     FM210500 34013G21KT 2SM BR BKN035
     FM210600 33013G22KT P6SM BKN035=

USA.gov is the U.S. government's official web portal to all federal, state and local government web resources and services.